• Join FlightAware (Why Join?)
  • Login
  • US Flag 
06:11PM EDT


 

Airport Tracker/Info


-or-


 

Live Flight TrackerFlight Track Log ✈ AAL1642 ✈ 07-May-2013 ✈ KORD - KRDU

Flight Track Log - Related Links

Times and Time Zones

All times are in EDT time to prevent confusion due to time zone crossing. See the AAL1642 flight status page for this flight to view local times or setup timezone preferences in your user account.

Time Position Orientation Groundspeed Altitude Reporting Facility
EDT Latitude Longitude Course Direction KTS MPH feet Rate Location/Type
11:55AM 41.9833 -87.8500 180° South 170 196 2,400  Level Chicago TRACON
11:56AM 41.8451 -87.6705 158° South  Level Estimated
11:56AM 41.9333 -87.8000 143° Southeast 235 270 4,700  Level Chicago TRACON
11:57AM 41.7340 -87.6764 182° South  Level FlightAware Approximate
11:58AM 41.6664 -87.5580 153° Southeast  Level Estimated
11:58AM 41.7900 -87.7628 169° South 265 305 5,200  Level Chicago Center
11:59AM 41.5556 -87.5710 185° South  Level FlightAware Approximate
11:59AM 41.6969 -87.7578 178° South 275 316 7,700  Level Chicago Center
12:00PM 41.4888 -87.4521 180° South  Level Estimated
12:00PM 41.6239 -87.7097 154° Southeast 292 336 10,900  Level Chicago Center
12:01PM 41.5483 -87.6569 152° Southeast 303 349 13,400 2,460 Climbing Chicago Center
12:02PM 41.4647 -87.5994 153° Southeast 327 376 16,000 2,460 Climbing Chicago Center
12:03PM 41.3692 -87.5611 163° South 351 404 18,600 2,220 Climbing Chicago Center
12:04PM 41.2661 -87.5458 174° South 368 423 20,700 2,040 Climbing Chicago Center
12:06PM 41.0739 -87.4978 169° South 395 455 24,200 1,920 Climbing Indianapolis Center
12:06PM 41.0500 -87.4928 171° South 398 458 24,700 1,920 Climbing Chicago Center
12:07PM 40.9167 -87.4569 169° South 408 470 27,000 1,860 Climbing Chicago Center
12:08PM 40.8039 -87.4269 169° South 412 474 28,600 1,440 Climbing Chicago Center
12:09PM 40.6867 -87.3953 168° South 426 490 30,000 1,200 Climbing Chicago Center
12:10PM 40.5683 -87.3647 169° South 433 498 31,100 1,500 Climbing Chicago Center
12:11PM 40.4519 -87.3322 168° South 428 493 33,200 1,680 Climbing Chicago Center
12:12PM 40.3406 -87.2283 145° Southeast 413 475 34,600 840 Climbing Chicago Center
12:13PM 40.2486 -87.1436 145° Southeast 406 467 35,000 180 Climbing Chicago Center
12:14PM 40.1567 -87.0575 144° Southeast 407 468 35,000  Level Chicago Center
12:15PM 40.0944 -87.0017 146° Southeast 411 473 35,000  Level Indianapolis Center
12:16PM 40.0006 -86.9131 144° Southeast 414 476 35,000  Level Indianapolis Center
12:17PM 39.9350 -86.7969 126° Southeast 399 459 35,000  Level Indianapolis Center
12:18PM 39.8728 -86.6736 123° Southeast 401 461 35,000  Level Indianapolis Center
12:19PM 39.8119 -86.5500 123° Southeast 403 464 35,000  Level Indianapolis Center
12:20PM 39.7508 -86.4278 123° Southeast 403 464 35,000  Level Indianapolis Center
12:21PM 39.6900 -86.3033 122° Southeast 405 466 35,000  Level Indianapolis Center
12:22PM 39.6478 -86.1633 111° Southeast 413 475 35,100  Climbing Indianapolis Center
12:23PM 39.6025 -86.0308 114° Southeast 406 467 35,000 -60 Descending Indianapolis Center
12:24PM 39.5572 -85.8964 114° Southeast 404 465 35,000  Level Indianapolis Center
12:25PM 39.5017 -85.7369 114° Southeast 403 464 35,000 -60 Level Indianapolis Center
12:26PM 39.4569 -85.6053 114° Southeast 400 460 34,900  Descending Indianapolis Center
12:27PM 39.4111 -85.4714 114° Southeast 399 459 35,000  Climbing Indianapolis Center
12:28PM 39.3642 -85.3375 114° Southeast 403 464 35,000 -60 Level Indianapolis Center
12:29PM 39.3161 -85.2025 115° Southeast 410 472 34,900  Descending Indianapolis Center
12:30PM 39.2689 -85.0686 114° Southeast 408 470 35,000 60 Climbing Indianapolis Center
12:31PM 39.2197 -84.9317 115° Southeast 416 479 35,100  Climbing Indianapolis Center
12:32PM 39.1717 -84.7992 115° Southeast 409 471 35,000 -120 Descending Indianapolis Center
12:33PM 39.1253 -84.6675 114° Southeast 405 466 34,900 -60 Descending Indianapolis Center
12:34PM 39.0703 -84.5144 115° Southeast 403 464 34,900  Level Indianapolis Center
12:36PM 39.0228 -84.3825 115° Southeast 404 465 35,000  Climbing Indianapolis Center
12:37PM 38.9744 -84.2500 115° Southeast 406 467 35,000  Level Indianapolis Center
12:38PM 38.9264 -84.1186 115° Southeast 405 466 35,000  Level Indianapolis Center
12:39PM 38.8778 -83.9853 115° Southeast 409 471 35,000  Level Indianapolis Center
12:40PM 38.8286 -83.8539 116° Southeast 408 470 35,000  Level Indianapolis Center
12:41PM 38.7808 -83.7225 115° Southeast 404 465 35,000 -60 Level Indianapolis Center
12:42PM 38.7325 -83.5919 115° Southeast 401 461 34,900 -60 Descending Indianapolis Center
12:43PM 38.6756 -83.4400 116° Southeast 401 461 34,900  Level Indianapolis Center
12:44PM 38.6275 -83.3133 116° Southeast 404 465 35,000  Climbing Indianapolis Center
12:45PM 38.5789 -83.1828 115° Southeast 404 465 35,000  Level Indianapolis Center
12:46PM 38.5306 -83.0547 116° Southeast 401 461 35,000 -60 Level Indianapolis Center
12:47PM 38.4817 -82.9247 116° Southeast 403 464 34,900  Descending Indianapolis Center
12:48PM 38.4222 -82.7706 116° Southeast 412 474 35,000 -240 Climbing Indianapolis Center
12:49PM 38.3711 -82.6381 116° Southeast 415 478 34,500 -900 Descending Indianapolis Center
12:50PM 38.3217 -82.5092 116° Southeast 407 468 33,200 -1,260 Descending Indianapolis Center
12:51PM 38.2717 -82.3781 116° Southeast 393 452 32,000 -600 Descending Indianapolis Center
12:52PM 38.2236 -82.2558 117° Southeast 389 448 32,000  Level Indianapolis Center
12:53PM 38.1767 -82.1361 116° Southeast 381 438 32,000  Level Indianapolis Center
12:54PM 38.1294 -82.0139 116° Southeast 385 443 32,000  Level Indianapolis Center
12:55PM 38.0814 -81.8906 116° Southeast 391 450 32,000  Level Indianapolis Center
12:56PM 38.0328 -81.7689 117° Southeast 390 449 32,000 -120 Level Indianapolis Center
12:57PM 37.9747 -81.6250 117° Southeast 384 442 31,800 -540 Descending Indianapolis Center
12:58PM 37.9267 -81.5014 116° Southeast 391 450 31,000 -840 Descending Indianapolis Center
12:59PM 37.8769 -81.3772 117° Southeast 395 455 30,100 -960 Descending Indianapolis Center
01:00PM 37.8228 -81.2464 118° Southeast 388 447 29,100 -720 Descending Indianapolis Center
01:01PM 37.7928 -81.1764 118° Southeast 378 435 29,000 -120 Descending Washington Center
01:02PM 37.7439 -81.0597 118° Southeast 373 429 29,000  Level Washington Center
01:03PM 37.7011 -80.9492 116° Southeast 378 435 29,000  Level Washington Center
01:04PM 37.6519 -80.8303 118° Southeast 378 435 29,000 -180 Level Washington Center
01:05PM 37.6050 -80.7117 117° Southeast 384 442 28,700 -1,200 Descending Washington Center
01:06PM 37.5542 -80.5850 117° Southeast 378 435 26,600 -1,740 Descending Washington Center
01:07PM 37.5047 -80.4692 118° Southeast 378 435 25,300 -840 Descending Washington Center
01:08PM 37.4611 -80.3592 117° Southeast 373 429 25,000 -180 Descending Washington Center
01:09PM 37.4133 -80.2461 118° Southeast 368 423 25,000 -420 Level Washington Center
01:10PM 37.3714 -80.1444 117° Southeast 368 423 24,200 -1,320 Descending Washington Center
01:11PM 37.3172 -80.0342 122° Southeast 368 423 22,500 -1,740 Descending Washington Center
01:12PM 37.2519 -79.9311 128° Southeast 368 423 20,800 -1,620 Descending Washington Center
01:13PM 37.1850 -79.8256 129° Southeast 368 423 19,300 -900 Descending Washington Center
01:14PM 37.1214 -79.7361 132° Southeast 348 400 19,000 -180 Descending Washington Center
01:15PM 37.0450 -79.6514 138° Southeast 348 400 19,000 -360 Level Washington Center
01:16PM 36.9764 -79.5775 139° Southeast 363 418 18,300 -960 Descending Washington Center
01:17PM 36.8981 -79.4903 138° Southeast 374 430 17,100 -660 Descending Washington Center
01:18PM 36.8214 -79.4061 139° Southeast 374 430 17,000 -60 Descending Washington Center
01:19PM 36.7447 -79.3194 138° Southeast 374 430 17,000 -300 Level Washington Center
01:20PM 36.6622 -79.2272 138° Southeast 374 430 16,500 -1,140 Descending Washington Center
01:21PM 36.5936 -79.1492 138° Southeast 361 415 14,800 -2,220 Descending Washington Center
01:22PM 36.5308 -79.0842 140° Southeast 326 375 12,200 -2,640 Descending Washington Center
01:22PM 36.4983 -79.0492 139° Southeast 299 344 11,000 -1,920 Descending Washington Center
01:23PM 36.4658 -79.0167 141° Southeast 309 356 10,300 -660 Descending Washington Center
01:24PM 36.4136 -78.9525 135° Southeast 290 334 10,000 -780 Descending Washington Center
01:25PM 36.3544 -78.9008 145° Southeast 262 302 8,800 -1,140 Descending Washington Center
01:26PM 36.3056 -78.8550 143° Southeast 264 304 8,000 -480 Descending Washington Center
01:27PM 36.2547 -78.8092 144° Southeast 227 261 8,000 -360 Level Washington Center
01:28PM 36.2078 -78.7661 143° Southeast 220 253 7,400 -840 Descending Washington Center
01:28PM 36.1958 -78.7528 138° Southeast 227 261 7,000 -1,080 Descending Washington Center
01:29PM 36.1556 -78.6944 131° Southeast 221 254 6,000 -960 Descending Washington Center
01:30PM 36.1175 -78.6364 129° Southeast 225 259 5,200 -1,320 Descending Washington Center
01:31PM 36.0772 -78.5783 131° Southeast 219 252 3,600 -1,200 Descending Washington Center
01:31PM 36.0400 -78.5614 160° South 214 246 3,200 -600 Descending Washington Center
01:32PM 36.0192 -78.5581 173° South 208 239 3,000 -180 Descending Washington Center
01:33PM 35.9767 -78.5900 211° Southwest 214 246 3,000  Level Washington Center